Menu Close Menu
Station Historical Data
Daily Summary for March 31, 2017 Units:  English    Metric   Both
« Previous Day
Next Day »
Daily Weekly Monthly Yearly Custom
  High: Low: Average:
Temperature: 71.1 °F 55.6 °F 62.4 °F
Dew Point: 57.3 °F 44.4 °F 50.9 °F
Humidity: 92% 42% 69%
Wind Speed: 2.0mph 0.0mph 0.3mph
Wind Gust: 10.0mph - -
Wind- - West
Pressure: 29.94 in 29.73 in -
Precipitation: 0.43 in    
Historical Graphs
 
 
Tabular Data for March 31, 2017
Time Temperature Dew Point Pressure Wind Wind Speed Wind Gust Humidity Rainfall Rate (Hourly) solar Conditions
00:00 59.9 °F 57.0 °F 29.78 in Calm     90% 0.02 in 0.0 W/m2 RA
00:15 59.9 °F 56.9 °F 29.77 in Calm     90% 0.00 in 0.0 W/m2 SCT
00:30 59.8 °F 57.2 °F 29.78 in Calm     91% 0.00 in 0.0 W/m2 SCT
00:45 59.9 °F 57.3 °F 29.77 in Calm   2.0 mph 91% 0.00 in 0.0 W/m2 SCT
01:00 59.7 °F 57.1 °F 29.76 in Calm   1.0 mph 91% 0.00 in 0.0 W/m2 SCT
01:15 59.7 °F 56.8 °F 29.76 in Calm   3.0 mph 90% 0.00 in 0.0 W/m2 SCT
01:30 59.7 °F 56.5 °F 29.76 in Calm   1.0 mph 89% 0.00 in 0.0 W/m2 SCT
01:45 60.0 °F 56.4 °F 29.76 in Calm   3.0 mph 88% 0.00 in 0.0 W/m2 SCT
02:00 60.1 °F 56.5 °F 29.77 in Calm   3.0 mph 88% 0.02 in 0.0 W/m2 SCT
02:15 59.5 °F 56.6 °F 29.78 in Calm   3.0 mph 90% 0.09 in 0.0 W/m2 SCT
02:30 59.5 °F 56.9 °F 29.78 in Calm   3.0 mph 91% 0.03 in 0.0 W/m2 SCT
02:45 59.5 °F 56.9 °F 29.78 in NNW 1.0 mph 5.0 mph 91% 0.10 in 0.0 W/m2 RA
03:00 59.2 °F 56.6 °F 29.76 in Calm   3.0 mph 91% 0.10 in 0.0 W/m2 RA
03:15 58.4 °F 55.8 °F 29.75 in Calm   3.0 mph 91% 0.08 in 0.0 W/m2 SCT
03:30 58.4 °F 55.8 °F 29.75 in Calm   1.0 mph 91% 0.00 in 0.0 W/m2 SCT
03:45 58.4 °F 55.8 °F 29.74 in Calm     91% 0.00 in 0.0 W/m2 SCT
04:00 58.4 °F 55.8 °F 29.73 in Calm     91% 0.00 in 0.0 W/m2 SCT
04:15 58.4 °F 55.8 °F 29.73 in Calm     91% 0.00 in 0.0 W/m2 SCT
04:30 58.4 °F 55.8 °F 29.73 in Calm     91% 0.00 in 0.0 W/m2 SCT
04:45 58.4 °F 55.8 °F 29.73 in Calm     91% 0.00 in 0.0 W/m2 SCT
05:00 58.4 °F 55.8 °F 29.73 in Calm     91% 0.00 in 0.0 W/m2 SCT
05:15 58.4 °F 55.8 °F 29.73 in Calm     91% 0.00 in 0.0 W/m2 SCT
05:30 58.4 °F 55.8 °F 29.73 in Calm     91% 0.00 in 0.0 W/m2 SCT
05:45 58.4 °F 55.8 °F 29.73 in Calm     91% 0.00 in 0.0 W/m2 SCT
06:00 58.4 °F 55.8 °F 29.73 in Calm     91% 0.00 in 0.0 W/m2 SCT
06:15 58.4 °F 55.8 °F 29.73 in Calm     91% 0.00 in 0.0 W/m2 SCT
06:30 58.4 °F 55.8 °F 29.74 in Calm     91% 0.00 in 0.0 W/m2 SCT
06:45 58.4 °F 55.8 °F 29.74 in Calm     91% 0.00 in 0.0 W/m2 SCT
07:00 58.4 °F 55.8 °F 29.74 in Calm     91% 0.00 in 0.0 W/m2 SCT
07:15 58.4 °F 55.8 °F 29.75 in Calm     91% 0.00 in 0.0 W/m2 SCT
07:30 58.4 °F 55.8 °F 29.76 in Calm     91% 0.00 in 0.0 W/m2 SCT
07:45 58.4 °F 55.8 °F 29.76 in Calm     91% 0.00 in 0.0 W/m2 SCT
08:00 58.4 °F 55.8 °F 29.77 in Calm     91% 0.00 in 0.0 W/m2 SCT
08:15 56.8 °F 54.5 °F 29.77 in Calm     92% 0.00 in 0.0 W/m2 SCT
08:30 56.6 °F 53.7 °F 29.78 in Calm     90% 0.00 in 0.0 W/m2 SCT
08:45 56.4 °F 52.9 °F 29.78 in Calm   1.0 mph 88% 0.00 in 0.0 W/m2 SCT
09:00 56.5 °F 52.0 °F 29.79 in Calm   1.0 mph 85% 0.00 in 0.0 W/m2 SCT
09:15 56.7 °F 51.6 °F 29.79 in Calm   5.0 mph 83% 0.00 in 0.0 W/m2 SCT
09:30 57.2 °F 52.1 °F 29.79 in Calm   3.0 mph 83% 0.00 in 0.0 W/m2 SCT
09:45 58.0 °F 51.9 °F 29.80 in WSW 1.0 mph 3.0 mph 80% 0.00 in 0.0 W/m2 SCT
10:00 59.3 °F 51.4 °F 29.80 in NNW 1.0 mph 5.0 mph 75% 0.00 in 0.0 W/m2 SCT
10:15 60.8 °F 51.7 °F 29.80 in Calm   5.0 mph 72% 0.00 in 0.0 W/m2 SCT
10:30 62.5 °F 51.0 °F 29.80 in Calm   6.0 mph 66% 0.00 in 0.0 W/m2 SCT
10:45 63.4 °F 50.1 °F 29.81 in Calm   5.0 mph 62% 0.00 in 0.0 W/m2 SCT
11:00 64.6 °F 49.9 °F 29.81 in Calm   5.0 mph 59% 0.00 in 0.0 W/m2 SCT
11:15 65.7 °F 51.4 °F 29.81 in West 1.0 mph 3.0 mph 60% 0.00 in 0.0 W/m2 SCT
11:30 65.2 °F 50.5 °F 29.82 in WNW 1.0 mph 5.0 mph 59% 0.00 in 0.0 W/m2 SCT
11:45 65.8 °F 49.7 °F 29.83 in Calm   6.0 mph 56% 0.00 in 0.0 W/m2 SCT
12:00 66.5 °F 49.8 °F 29.83 in Calm   5.0 mph 55% 0.00 in 0.0 W/m2 SCT
12:15 66.4 °F 48.8 °F 29.83 in NW 1.0 mph 5.0 mph 53% 0.00 in 0.0 W/m2 SCT
12:30 67.2 °F 50.0 °F 29.83 in West 1.0 mph 8.0 mph 54% 0.00 in 0.0 W/m2 SCT
12:45 69.2 °F 50.3 °F 29.82 in WNW 1.0 mph 8.0 mph 51% 0.00 in 0.0 W/m2 SCT
13:00 69.9 °F 48.8 °F 29.82 in WNW 2.0 mph 7.0 mph 47% 0.00 in 0.0 W/m2 SCT
13:15 68.2 °F 50.9 °F 29.82 in WNW 1.0 mph 5.0 mph 54% 0.00 in 0.0 W/m2 SCT
13:30 68.5 °F 48.6 °F 29.83 in WSW 2.0 mph 8.0 mph 49% 0.00 in 0.0 W/m2 SCT
13:45 69.8 °F 50.9 °F 29.83 in NNW 1.0 mph 6.0 mph 51% 0.00 in 0.0 W/m2 SCT
14:00 69.8 °F 48.6 °F 29.83 in Calm   5.0 mph 47% 0.00 in 0.0 W/m2 SCT
14:15 68.9 °F 47.2 °F 29.83 in WNW 1.0 mph 6.0 mph 46% 0.00 in 0.0 W/m2 SCT
14:30 70.4 °F 46.8 °F 29.82 in NW 1.0 mph 6.0 mph 43% 0.00 in 0.0 W/m2 SCT
14:45 71.1 °F 46.8 °F 29.82 in NNE 2.0 mph 5.0 mph 42% 0.00 in 0.0 W/m2 SCT
15:00 70.8 °F 49.5 °F 29.81 in Calm   7.0 mph 47% 0.00 in 0.0 W/m2 SCT
15:15 70.6 °F 46.3 °F 29.81 in Calm   6.0 mph 42% 0.00 in 0.0 W/m2 SCT
15:30 69.9 °F 46.4 °F 29.81 in Calm   7.0 mph 43% 0.00 in 0.0 W/m2 SCT
15:45 68.6 °F 48.1 °F 29.81 in NNW 1.0 mph 9.0 mph 48% 0.00 in 0.0 W/m2 SCT
16:00 69.1 °F 46.3 °F 29.81 in South 2.0 mph 6.0 mph 44% 0.00 in 0.0 W/m2 SCT
16:15 69.3 °F 47.1 °F 29.81 in North 1.0 mph 7.0 mph 45% 0.00 in 0.0 W/m2 SCT
16:30 69.8 °F 46.9 °F 29.82 in SSW 1.0 mph 5.0 mph 44% 0.00 in 0.0 W/m2 SCT
16:45 70.0 °F 45.8 °F 29.82 in NE 2.0 mph 5.0 mph 42% 0.00 in 0.0 W/m2 SCT
17:00 69.5 °F 45.4 °F 29.82 in WNW 1.0 mph 5.0 mph 42% 0.00 in 0.0 W/m2 SCT
17:15 69.5 °F 46.0 °F 29.82 in ENE 2.0 mph 5.0 mph 43% 0.00 in 0.0 W/m2 SCT
17:30 68.9 °F 45.5 °F 29.82 in Calm   6.0 mph 43% 0.00 in 0.0 W/m2 SCT
17:45 68.3 °F 44.9 °F 29.83 in Calm   8.0 mph 43% 0.00 in 0.0 W/m2 SCT
18:00 68.0 °F 45.3 °F 29.82 in NW 1.0 mph 5.0 mph 44% 0.00 in 0.0 W/m2 SCT
18:15 67.7 °F 44.4 °F 29.83 in SSE 1.0 mph 10.0 mph 43% 0.00 in 0.0 W/m2 SCT
18:30 67.4 °F 45.3 °F 29.83 in Calm   5.0 mph 45% 0.00 in 0.0 W/m2 SCT
18:45 66.6 °F 45.7 °F 29.84 in Calm   5.0 mph 47% 0.00 in 0.0 W/m2 SCT
19:00 66.1 °F 45.8 °F 29.84 in Calm   2.0 mph 48% 0.00 in 0.0 W/m2 SCT
19:15 65.6 °F 45.4 °F 29.85 in Calm   5.0 mph 48% 0.00 in 0.0 W/m2 SCT
19:30 64.9 °F 45.3 °F 29.85 in NNW 1.0 mph 3.0 mph 49% 0.00 in 0.0 W/m2 SCT
19:45 64.3 °F 45.8 °F 29.86 in Calm   2.0 mph 51% 0.00 in 0.0 W/m2 SCT
20:00 63.5 °F 46.1 °F 29.86 in Calm     53% 0.00 in 0.0 W/m2 SCT
20:15 62.7 °F 46.3 °F 29.87 in Calm   1.0 mph 55% 0.00 in 0.0 W/m2 SCT
20:30 62.2 °F 45.4 °F 29.88 in Calm   1.0 mph 54% 0.00 in 0.0 W/m2 SCT
20:45 61.7 °F 45.8 °F 29.88 in Calm     56% 0.00 in 0.0 W/m2 SCT
21:00 61.3 °F 46.4 °F 29.89 in Calm     58% 0.00 in 0.0 W/m2 SCT
21:15 60.7 °F 46.3 °F 29.89 in Calm     59% 0.00 in 0.0 W/m2 SCT
21:30 60.3 °F 46.4 °F 29.90 in Calm   2.0 mph 60% 0.00 in 0.0 W/m2 SCT
21:45 59.5 °F 46.9 °F 29.91 in Calm   1.0 mph 63% 0.00 in 0.0 W/m2 SCT
22:00 59.0 °F 46.4 °F 29.91 in Calm     63% 0.00 in 0.0 W/m2 SCT
22:15 58.5 °F 47.2 °F 29.92 in Calm   1.0 mph 66% 0.00 in 0.0 W/m2 SCT
22:30 57.8 °F 46.9 °F 29.92 in Calm   1.0 mph 67% 0.00 in 0.0 W/m2 SCT
22:45 57.3 °F 46.8 °F 29.93 in Calm     68% 0.00 in 0.0 W/m2 SCT
23:00 56.8 °F 46.7 °F 29.93 in Calm     69% 0.00 in 0.0 W/m2 SCT
23:15 56.4 °F 46.7 °F 29.93 in Calm     70% 0.00 in 0.0 W/m2 SCT
23:30 56.1 °F 47.2 °F 29.94 in Calm     72% 0.00 in 0.0 W/m2 SCT
23:45 55.6 °F 46.7 °F 29.94 in Calm     72% 0.00 in 0.0 W/m2 SCT
Piedmont Bend
Compliments of Weather Underground - 4 mb